sensor_id;sensor_type;location;lat;lon;timestamp;temperature;humidity
4556;DHT22;2290;48.674;9.018;2022-10-31T00:00:00;12.70;99.90
4556;DHT22;2290;48.674;9.018;2022-10-31T00:02:26;12.50;99.90
4556;DHT22;2290;48.674;9.018;2022-10-31T00:04:52;12.50;99.90
4556;DHT22;2290;48.674;9.018;2022-10-31T00:07:17;12.50;99.90
4556;DHT22;2290;48.674;9.018;2022-10-31T00:09:43;12.50;99.90
4556;DHT22;2290;48.674;9.018;2022-10-31T00:12:08;12.50;99.90
4556;DHT22;2290;48.674;9.018;2022-10-31T00:14:34;12.50;99.90
4556;DHT22;2290;48.674;9.018;2022-10-31T00:17:01;12.50;99.90
4556;DHT22;2290;48.674;9.018;2022-10-31T00:19:27;12.40;99.90
4556;DHT22;2290;48.674;9.018;2022-10-31T00:21:52;12.30;99.90
4556;DHT22;2290;48.674;9.018;2022-10-31T00:24:18;12.40;99.90
4556;DHT22;2290;48.674;9.018;2022-10-31T00:26:44;12.30;99.90
4556;DHT22;2290;48.674;9.018;2022-10-31T00:29:10;12.30;99.90
4556;DHT22;2290;48.674;9.018;2022-10-31T00:31:37;12.30;99.90
4556;DHT22;2290;48.674;9.018;2022-10-31T00:34:06;12.20;99.90
4556;DHT22;2290;48.674;9.018;2022-10-31T00:36:35;12.30;99.90
4556;DHT22;2290;48.674;9.018;2022-10-31T00:39:00;12.30;99.90
4556;DHT22;2290;48.674;9.018;2022-10-31T00:41:26;12.30;99.90
4556;DHT22;2290;48.674;9.018;2022-10-31T00:43:52;12.30;99.90
4556;DHT22;2290;48.674;9.018;2022-10-31T00:46:17;12.30;99.90
4556;DHT22;2290;48.674;9.018;2022-10-31T00:48:43;12.30;99.90
4556;DHT22;2290;48.674;9.018;2022-10-31T00:51:09;12.30;99.90
4556;DHT22;2290;48.674;9.018;2022-10-31T00:53:36;12.30;99.90
4556;DHT22;2290;48.674;9.018;2022-10-31T00:56:03;12.30;99.90
4556;DHT22;2290;48.674;9.018;2022-10-31T00:58:30;12.30;99.90
4556;DHT22;2290;48.674;9.018;2022-10-31T01:00:57;12.30;99.90
4556;DHT22;2290;48.674;9.018;2022-10-31T01:03:28;12.30;99.90
4556;DHT22;2290;48.674;9.018;2022-10-31T01:06:02;12.30;99.90
4556;DHT22;2290;48.674;9.018;2022-10-31T01:08:28;12.30;99.90
4556;DHT22;2290;48.674;9.018;2022-10-31T01:11:10;12.20;99.90
4556;DHT22;2290;48.674;9.018;2022-10-31T01:13:38;12.10;99.90
4556;DHT22;2290;48.674;9.018;2022-10-31T01:16:05;12.10;99.90
4556;DHT22;2290;48.674;9.018;2022-10-31T01:18:34;12.10;99.90
4556;DHT22;2290;48.674;9.018;2022-10-31T01:21:12;12.10;99.90
4556;DHT22;2290;48.674;9.018;2022-10-31T01:23:38;12.10;99.90
4556;DHT22;2290;48.674;9.018;2022-10-31T01:26:05;12.10;99.90
4556;DHT22;2290;48.674;9.018;2022-10-31T01:28:35;12.10;99.90
4556;DHT22;2290;48.674;9.018;2022-10-31T01:31:03;12.00;99.90
4556;DHT22;2290;48.674;9.018;2022-10-31T01:33:29;11.90;99.90
4556;DHT22;2290;48.674;9.018;2022-10-31T01:35:55;11.90;99.90
4556;DHT22;2290;48.674;9.018;2022-10-31T01:38:20;11.80;99.90
4556;DHT22;2290;48.674;9.018;2022-10-31T01:40:46;12.10;99.90
4556;DHT22;2290;48.674;9.018;2022-10-31T01:43:15;11.90;99.90
4556;DHT22;2290;48.674;9.018;2022-10-31T01:45:42;12.20;99.90
4556;DHT22;2290;48.674;9.018;2022-10-31T01:48:15;12.00;99.90
4556;DHT22;2290;48.674;9.018;2022-10-31T01:50:45;11.90;99.90
4556;DHT22;2290;48.674;9.018;2022-10-31T01:53:12;11.80;99.90
4556;DHT22;2290;48.674;9.018;2022-10-31T01:55:45;11.90;99.90
4556;DHT22;2290;48.674;9.018;2022-10-31T01:58:14;11.80;99.90
4556;DHT22;2290;48.674;9.018;2022-10-31T02:00:43;11.80;99.90
4556;DHT22;2290;48.674;9.018;2022-10-31T02:03:11;11.70;99.90
4556;DHT22;2290;48.674;9.018;2022-10-31T02:05:38;11.80;99.90
4556;DHT22;2290;48.674;9.018;2022-10-31T02:08:25;11.90;99.90
4556;DHT22;2290;48.674;9.018;2022-10-31T02:10:52;11.80;99.90
4556;DHT22;2290;48.674;9.018;2022-10-31T02:13:18;11.70;99.90
4556;DHT22;2290;48.674;9.018;2022-10-31T02:15:46;11.70;99.90
4556;DHT22;2290;48.674;9.018;2022-10-31T02:18:12;11.70;99.90
4556;DHT22;2290;48.674;9.018;2022-10-31T02:21:21;11.60;99.90
4556;DHT22;2290;48.674;9.018;2022-10-31T02:35:08;11.60;99.90
4556;DHT22;2290;48.674;9.018;2022-10-31T02:37:47;11.70;99.90
4556;DHT22;2290;48.674;9.018;2022-10-31T02:46:14;11.50;99.90
4556;DHT22;2290;48.674;9.018;2022-10-31T02:48:50;11.40;99.90
4556;DHT22;2290;48.674;9.018;2022-10-31T02:51:22;11.40;99.90
4556;DHT22;2290;48.674;9.018;2022-10-31T02:53:48;11.40;99.90
4556;DHT22;2290;48.674;9.018;2022-10-31T02:56:21;11.40;99.90
4556;DHT22;2290;48.674;9.018;2022-10-31T02:58:56;11.50;99.90
4556;DHT22;2290;48.674;9.018;2022-10-31T03:04:32;11.50;99.90
4556;DHT22;2290;48.674;9.018;2022-10-31T03:10:00;11.50;99.90
4556;DHT22;2290;48.674;9.018;2022-10-31T03:12:35;11.50;99.90
4556;DHT22;2290;48.674;9.018;2022-10-31T03:15:23;11.40;99.90
4556;DHT22;2290;48.674;9.018;2022-10-31T03:18:09;11.40;99.90
4556;DHT22;2290;48.674;9.018;2022-10-31T03:20:52;11.30;99.90
4556;DHT22;2290;48.674;9.018;2022-10-31T03:23:22;11.30;99.90
4556;DHT22;2290;48.674;9.018;2022-10-31T03:25:49;11.30;99.90
4556;DHT22;2290;48.674;9.018;2022-10-31T03:28:19;12.00;99.90
4556;DHT22;2290;48.674;9.018;2022-10-31T03:30:48;11.20;99.90
4556;DHT22;2290;48.674;9.018;2022-10-31T03:33:23;11.10;99.90
4556;DHT22;2290;48.674;9.018;2022-10-31T03:36:02;11.20;99.90
4556;DHT22;2290;48.674;9.018;2022-10-31T03:38:42;11.20;99.90
4556;DHT22;2290;48.674;9.018;2022-10-31T03:41:25;11.20;99.90
4556;DHT22;2290;48.674;9.018;2022-10-31T03:43:58;11.10;99.90
4556;DHT22;2290;48.674;9.018;2022-10-31T03:46:26;11.10;99.90
4556;DHT22;2290;48.674;9.018;2022-10-31T03:48:53;11.10;99.90
4556;DHT22;2290;48.674;9.018;2022-10-31T03:51:47;11.10;99.90
4556;DHT22;2290;48.674;9.018;2022-10-31T03:54:30;11.10;99.90
4556;DHT22;2290;48.674;9.018;2022-10-31T03:57:01;11.10;99.90
4556;DHT22;2290;48.674;9.018;2022-10-31T03:59:35;11.00;99.90
4556;DHT22;2290;48.674;9.018;2022-10-31T04:02:05;11.00;99.90
4556;DHT22;2290;48.674;9.018;2022-10-31T04:04:34;11.00;99.90
4556;DHT22;2290;48.674;9.018;2022-10-31T04:07:03;11.00;99.90
4556;DHT22;2290;48.674;9.018;2022-10-31T04:09:36;11.70;99.90
4556;DHT22;2290;48.674;9.018;2022-10-31T04:12:05;11.00;99.90
4556;DHT22;2290;48.674;9.018;2022-10-31T04:14:35;11.00;99.90
4556;DHT22;2290;48.674;9.018;2022-10-31T04:17:03;11.10;99.90
4556;DHT22;2290;48.674;9.018;2022-10-31T04:19:31;11.30;99.90
4556;DHT22;2290;48.674;9.018;2022-10-31T04:21:57;10.90;99.90
4556;DHT22;2290;48.674;9.018;2022-10-31T04:24:23;11.00;99.90
4556;DHT22;2290;48.674;9.018;2022-10-31T04:26:51;10.80;99.90
4556;DHT22;2290;48.674;9.018;2022-10-31T04:29:16;10.80;99.90
4556;DHT22;2290;48.674;9.018;2022-10-31T04:31:42;10.90;99.90
4556;DHT22;2290;48.674;9.018;2022-10-31T04:34:08;10.90;99.90
4556;DHT22;2290;48.674;9.018;2022-10-31T04:36:34;10.90;99.90
4556;DHT22;2290;48.674;9.018;2022-10-31T04:38:59;11.00;99.90
4556;DHT22;2290;48.674;9.018;2022-10-31T04:41:26;11.00;99.90
4556;DHT22;2290;48.674;9.018;2022-10-31T04:43:52;10.90;99.90
4556;DHT22;2290;48.674;9.018;2022-10-31T04:46:18;11.70;99.90
4556;DHT22;2290;48.674;9.018;2022-10-31T04:48:43;10.80;99.90
4556;DHT22;2290;48.674;9.018;2022-10-31T04:51:09;10.70;99.90
4556;DHT22;2290;48.674;9.018;2022-10-31T04:53:34;10.70;99.90
4556;DHT22;2290;48.674;9.018;2022-10-31T04:56:02;10.70;99.90
4556;DHT22;2290;48.674;9.018;2022-10-31T04:58:28;10.70;99.90
4556;DHT22;2290;48.674;9.018;2022-10-31T05:00:55;10.70;99.90
4556;DHT22;2290;48.674;9.018;2022-10-31T05:03:23;10.70;99.90
4556;DHT22;2290;48.674;9.018;2022-10-31T05:05:49;10.70;99.90
4556;DHT22;2290;48.674;9.018;2022-10-31T05:08:15;10.70;99.90
4556;DHT22;2290;48.674;9.018;2022-10-31T05:10:41;10.60;99.90
4556;DHT22;2290;48.674;9.018;2022-10-31T05:13:07;10.60;99.90
4556;DHT22;2290;48.674;9.018;2022-10-31T05:15:33;10.60;99.90
4556;DHT22;2290;48.674;9.018;2022-10-31T05:17:59;10.60;99.90
4556;DHT22;2290;48.674;9.018;2022-10-31T05:20:29;10.70;99.90
4556;DHT22;2290;48.674;9.018;2022-10-31T05:22:56;10.80;99.90
4556;DHT22;2290;48.674;9.018;2022-10-31T05:25:23;10.80;99.90
4556;DHT22;2290;48.674;9.018;2022-10-31T05:27:51;10.80;99.90
4556;DHT22;2290;48.674;9.018;2022-10-31T05:30:19;10.60;99.90
4556;DHT22;2290;48.674;9.018;2022-10-31T05:32:49;10.60;99.90
4556;DHT22;2290;48.674;9.018;2022-10-31T05:35:18;10.50;99.90
4556;DHT22;2290;48.674;9.018;2022-10-31T05:37:44;10.50;99.90
4556;DHT22;2290;48.674;9.018;2022-10-31T05:40:12;10.50;99.90
4556;DHT22;2290;48.674;9.018;2022-10-31T05:42:42;10.60;99.90
4556;DHT22;2290;48.674;9.018;2022-10-31T05:45:10;10.50;99.90
4556;DHT22;2290;48.674;9.018;2022-10-31T05:47:37;10.40;99.90
4556;DHT22;2290;48.674;9.018;2022-10-31T05:50:04;10.60;99.90
4556;DHT22;2290;48.674;9.018;2022-10-31T05:52:31;10.60;99.90
4556;DHT22;2290;48.674;9.018;2022-10-31T05:54:57;10.60;99.90
4556;DHT22;2290;48.674;9.018;2022-10-31T05:57:26;11.50;99.90
4556;DHT22;2290;48.674;9.018;2022-10-31T05:59:52;10.60;99.90
4556;DHT22;2290;48.674;9.018;2022-10-31T06:02:20;10.50;99.90
4556;DHT22;2290;48.674;9.018;2022-10-31T06:04:46;10.60;99.90
4556;DHT22;2290;48.674;9.018;2022-10-31T06:07:12;10.60;99.90
4556;DHT22;2290;48.674;9.018;2022-10-31T06:09:38;10.50;99.90
4556;DHT22;2290;48.674;9.018;2022-10-31T06:12:03;10.40;99.90
4556;DHT22;2290;48.674;9.018;2022-10-31T06:14:30;10.40;99.90
4556;DHT22;2290;48.674;9.018;2022-10-31T06:16:57;10.40;99.90
4556;DHT22;2290;48.674;9.018;2022-10-31T06:19:24;10.50;99.90
4556;DHT22;2290;48.674;9.018;2022-10-31T06:21:50;10.30;99.90
4556;DHT22;2290;48.674;9.018;2022-10-31T06:24:17;10.30;99.90
4556;DHT22;2290;48.674;9.018;2022-10-31T06:26:44;10.20;99.90
4556;DHT22;2290;48.674;9.018;2022-10-31T06:29:09;10.30;99.90
4556;DHT22;2290;48.674;9.018;2022-10-31T06:31:36;11.10;99.90
4556;DHT22;2290;48.674;9.018;2022-10-31T06:34:02;10.30;99.90
4556;DHT22;2290;48.674;9.018;2022-10-31T06:36:27;10.40;99.90
4556;DHT22;2290;48.674;9.018;2022-10-31T06:38:57;10.50;99.90
4556;DHT22;2290;48.674;9.018;2022-10-31T06:41:24;10.50;99.90
4556;DHT22;2290;48.674;9.018;2022-10-31T06:43:51;10.60;99.90
4556;DHT22;2290;48.674;9.018;2022-10-31T06:46:16;10.50;99.90
4556;DHT22;2290;48.674;9.018;2022-10-31T06:48:42;10.60;99.90
4556;DHT22;2290;48.674;9.018;2022-10-31T06:51:08;10.60;99.90
4556;DHT22;2290;48.674;9.018;2022-10-31T06:53:36;10.60;99.90
4556;DHT22;2290;48.674;9.018;2022-10-31T06:56:01;10.70;99.90
4556;DHT22;2290;48.674;9.018;2022-10-31T06:58:28;10.60;99.90
4556;DHT22;2290;48.674;9.018;2022-10-31T07:00:54;10.70;99.90
4556;DHT22;2290;48.674;9.018;2022-10-31T07:03:19;10.80;99.90
4556;DHT22;2290;48.674;9.018;2022-10-31T07:05:45;10.80;99.90
4556;DHT22;2290;48.674;9.018;2022-10-31T07:08:12;10.90;99.90
4556;DHT22;2290;48.674;9.018;2022-10-31T07:10:39;10.90;99.90
4556;DHT22;2290;48.674;9.018;2022-10-31T07:13:08;10.90;99.90
4556;DHT22;2290;48.674;9.018;2022-10-31T07:15:38;11.00;99.90
4556;DHT22;2290;48.674;9.018;2022-10-31T07:18:06;11.00;99.90
4556;DHT22;2290;48.674;9.018;2022-10-31T07:20:35;11.20;99.90
4556;DHT22;2290;48.674;9.018;2022-10-31T07:23:00;11.30;99.90
4556;DHT22;2290;48.674;9.018;2022-10-31T07:25:28;11.40;99.90
4556;DHT22;2290;48.674;9.018;2022-10-31T07:27:54;11.50;99.90
4556;DHT22;2290;48.674;9.018;2022-10-31T07:30:20;11.60;99.90
4556;DHT22;2290;48.674;9.018;2022-10-31T07:32:48;11.70;99.90
4556;DHT22;2290;48.674;9.018;2022-10-31T07:35:19;11.70;99.90
4556;DHT22;2290;48.674;9.018;2022-10-31T07:37:44;11.80;99.90
4556;DHT22;2290;48.674;9.018;2022-10-31T07:40:10;11.90;99.90
4556;DHT22;2290;48.674;9.018;2022-10-31T07:42:39;11.90;99.90
4556;DHT22;2290;48.674;9.018;2022-10-31T07:45:06;12.00;99.90
4556;DHT22;2290;48.674;9.018;2022-10-31T07:50:12;12.10;99.90
4556;DHT22;2290;48.674;9.018;2022-10-31T07:52:39;12.20;99.90
4556;DHT22;2290;48.674;9.018;2022-10-31T07:55:05;12.30;99.90
4556;DHT22;2290;48.674;9.018;2022-10-31T07:57:32;12.40;99.90
4556;DHT22;2290;48.674;9.018;2022-10-31T07:59:59;12.50;99.90
4556;DHT22;2290;48.674;9.018;2022-10-31T08:02:25;12.60;99.90
4556;DHT22;2290;48.674;9.018;2022-10-31T08:04:52;12.70;99.90
4556;DHT22;2290;48.674;9.018;2022-10-31T08:07:18;12.90;99.90
4556;DHT22;2290;48.674;9.018;2022-10-31T08:09:43;12.90;99.90
4556;DHT22;2290;48.674;9.018;2022-10-31T08:12:09;13.10;99.90
4556;DHT22;2290;48.674;9.018;2022-10-31T08:14:34;13.20;99.90
4556;DHT22;2290;48.674;9.018;2022-10-31T08:17:00;13.70;99.90
4556;DHT22;2290;48.674;9.018;2022-10-31T08:19:26;13.20;99.90
4556;DHT22;2290;48.674;9.018;2022-10-31T08:21:52;13.30;99.90
4556;DHT22;2290;48.674;9.018;2022-10-31T08:24:18;13.20;99.90
4556;DHT22;2290;48.674;9.018;2022-10-31T08:26:46;13.30;99.90
4556;DHT22;2290;48.674;9.018;2022-10-31T08:29:12;13.40;99.90
4556;DHT22;2290;48.674;9.018;2022-10-31T08:31:42;13.50;99.90
4556;DHT22;2290;48.674;9.018;2022-10-31T08:34:08;13.60;99.90
4556;DHT22;2290;48.674;9.018;2022-10-31T08:36:33;13.70;99.90
4556;DHT22;2290;48.674;9.018;2022-10-31T08:39:00;13.90;99.90
4556;DHT22;2290;48.674;9.018;2022-10-31T08:41:27;14.00;99.90
4556;DHT22;2290;48.674;9.018;2022-10-31T08:43:54;14.10;99.90
4556;DHT22;2290;48.674;9.018;2022-10-31T08:46:20;14.30;99.90
4556;DHT22;2290;48.674;9.018;2022-10-31T08:48:49;14.50;99.90
4556;DHT22;2290;48.674;9.018;2022-10-31T08:51:15;14.70;99.90
4556;DHT22;2290;48.674;9.018;2022-10-31T08:53:40;14.70;99.90
4556;DHT22;2290;48.674;9.018;2022-10-31T08:56:06;14.90;99.90
4556;DHT22;2290;48.674;9.018;2022-10-31T08:58:34;15.00;99.90
4556;DHT22;2290;48.674;9.018;2022-10-31T09:01:00;15.10;99.90
4556;DHT22;2290;48.674;9.018;2022-10-31T09:03:29;15.30;99.90
4556;DHT22;2290;48.674;9.018;2022-10-31T09:05:57;15.30;99.90
4556;DHT22;2290;48.674;9.018;2022-10-31T09:08:23;15.50;99.90
4556;DHT22;2290;48.674;9.018;2022-10-31T09:10:52;15.60;99.90
4556;DHT22;2290;48.674;9.018;2022-10-31T09:13:22;15.70;99.90
4556;DHT22;2290;48.674;9.018;2022-10-31T09:15:48;15.80;99.90
4556;DHT22;2290;48.674;9.018;2022-10-31T09:18:19;15.90;99.90
4556;DHT22;2290;48.674;9.018;2022-10-31T09:20:46;16.00;99.90
4556;DHT22;2290;48.674;9.018;2022-10-31T09:25:41;16.10;99.90
4556;DHT22;2290;48.674;9.018;2022-10-31T09:28:10;16.10;99.90
4556;DHT22;2290;48.674;9.018;2022-10-31T09:30:37;16.10;99.90
4556;DHT22;2290;48.674;9.018;2022-10-31T09:33:07;16.10;99.90
4556;DHT22;2290;48.674;9.018;2022-10-31T09:35:37;16.10;99.90
4556;DHT22;2290;48.674;9.018;2022-10-31T09:38:07;16.20;99.90
4556;DHT22;2290;48.674;9.018;2022-10-31T09:49:16;16.50;99.90
4556;DHT22;2290;48.674;9.018;2022-10-31T09:51:54;16.60;99.90
4556;DHT22;2290;48.674;9.018;2022-10-31T09:54:55;16.60;99.90
4556;DHT22;2290;48.674;9.018;2022-10-31T09:57:33;16.70;99.90
4556;DHT22;2290;48.674;9.018;2022-10-31T09:59:59;16.90;99.90
4556;DHT22;2290;48.674;9.018;2022-10-31T10:02:56;17.00;99.90
4556;DHT22;2290;48.674;9.018;2022-10-31T10:05:51;17.10;99.90
4556;DHT22;2290;48.674;9.018;2022-10-31T10:08:25;17.30;99.90
4556;DHT22;2290;48.674;9.018;2022-10-31T10:11:24;17.40;99.90
4556;DHT22;2290;48.674;9.018;2022-10-31T10:17:50;17.50;99.90
4556;DHT22;2290;48.674;9.018;2022-10-31T10:23:52;17.80;99.90
4556;DHT22;2290;48.674;9.018;2022-10-31T10:26:22;17.90;99.90
4556;DHT22;2290;48.674;9.018;2022-10-31T10:31:51;17.90;99.90
4556;DHT22;2290;48.674;9.018;2022-10-31T10:34:40;17.90;99.90
4556;DHT22;2290;48.674;9.018;2022-10-31T10:37:30;17.90;99.90
4556;DHT22;2290;48.674;9.018;2022-10-31T10:40:22;18.10;99.90
4556;DHT22;2290;48.674;9.018;2022-10-31T10:49:15;18.50;99.90
4556;DHT22;2290;48.674;9.018;2022-10-31T10:51:55;18.60;99.90
4556;DHT22;2290;48.674;9.018;2022-10-31T10:57:27;18.60;99.90
4556;DHT22;2290;48.674;9.018;2022-10-31T11:00:00;18.70;99.90
4556;DHT22;2290;48.674;9.018;2022-10-31T11:02:32;18.70;99.90
4556;DHT22;2290;48.674;9.018;2022-10-31T11:04:59;18.90;99.90
4556;DHT22;2290;48.674;9.018;2022-10-31T11:07:26;19.00;99.90
4556;DHT22;2290;48.674;9.018;2022-10-31T11:10:06;19.10;99.90
4556;DHT22;2290;48.674;9.018;2022-10-31T11:12:39;19.30;99.90
4556;DHT22;2290;48.674;9.018;2022-10-31T11:15:48;19.50;99.90
4556;DHT22;2290;48.674;9.018;2022-10-31T11:18:27;19.70;99.90
4556;DHT22;2290;48.674;9.018;2022-10-31T11:20:55;19.80;99.90
4556;DHT22;2290;48.674;9.018;2022-10-31T11:23:24;19.80;99.90
4556;DHT22;2290;48.674;9.018;2022-10-31T11:28:26;19.90;99.90
4556;DHT22;2290;48.674;9.018;2022-10-31T11:30:57;20.00;99.90
4556;DHT22;2290;48.674;9.018;2022-10-31T11:34:05;20.00;99.90
4556;DHT22;2290;48.674;9.018;2022-10-31T11:36:39;20.10;99.90
4556;DHT22;2290;48.674;9.018;2022-10-31T11:39:17;20.10;99.90
4556;DHT22;2290;48.674;9.018;2022-10-31T11:41:48;20.10;99.90
4556;DHT22;2290;48.674;9.018;2022-10-31T11:46:49;20.00;99.90
4556;DHT22;2290;48.674;9.018;2022-10-31T11:52:06;19.80;99.90
4556;DHT22;2290;48.674;9.018;2022-10-31T11:54:38;19.80;99.90
4556;DHT22;2290;48.674;9.018;2022-10-31T11:57:28;19.70;99.90
4556;DHT22;2290;48.674;9.018;2022-10-31T11:59:59;19.70;99.90
4556;DHT22;2290;48.674;9.018;2022-10-31T12:02:26;19.70;99.90
4556;DHT22;2290;48.674;9.018;2022-10-31T12:05:18;19.80;99.90
4556;DHT22;2290;48.674;9.018;2022-10-31T12:07:45;19.80;99.90
4556;DHT22;2290;48.674;9.018;2022-10-31T12:10:11;20.00;99.90
4556;DHT22;2290;48.674;9.018;2022-10-31T12:13:17;20.00;99.90
4556;DHT22;2290;48.674;9.018;2022-10-31T12:15:50;20.00;99.90
4556;DHT22;2290;48.674;9.018;2022-10-31T12:30:18;19.80;99.90
4556;DHT22;2290;48.674;9.018;2022-10-31T12:36:11;19.60;99.90
4556;DHT22;2290;48.674;9.018;2022-10-31T12:47:45;19.20;99.90
4556;DHT22;2290;48.674;9.018;2022-10-31T12:53:32;19.20;99.90
4556;DHT22;2290;48.674;9.018;2022-10-31T12:58:53;19.20;99.90
4556;DHT22;2290;48.674;9.018;2022-10-31T13:01:39;19.20;99.90
4556;DHT22;2290;48.674;9.018;2022-10-31T13:06:59;19.20;99.90
4556;DHT22;2290;48.674;9.018;2022-10-31T13:10:06;19.20;99.90
4556;DHT22;2290;48.674;9.018;2022-10-31T13:12:24;19.30;99.90
4556;DHT22;2290;48.674;9.018;2022-10-31T13:14:54;19.30;99.90
4556;DHT22;2290;48.674;9.018;2022-10-31T13:17:56;19.40;99.90
4556;DHT22;2290;48.674;9.018;2022-10-31T13:23:12;19.60;99.90
4556;DHT22;2290;48.674;9.018;2022-10-31T13:25:44;19.90;99.90
4556;DHT22;2290;48.674;9.018;2022-10-31T13:31:20;20.70;99.90
4556;DHT22;2290;48.674;9.018;2022-10-31T13:37:01;21.90;99.90
4556;DHT22;2290;48.674;9.018;2022-10-31T13:42:19;22.20;99.90
4556;DHT22;2290;48.674;9.018;2022-10-31T13:44:46;22.20;99.90
4556;DHT22;2290;48.674;9.018;2022-10-31T13:47:38;22.40;99.90
4556;DHT22;2290;48.674;9.018;2022-10-31T13:50:25;22.90;99.90
4556;DHT22;2290;48.674;9.018;2022-10-31T13:53:02;23.90;99.90
4556;DHT22;2290;48.674;9.018;2022-10-31T13:55:42;23.80;99.90
4556;DHT22;2290;48.674;9.018;2022-10-31T13:58:25;23.60;99.90
4556;DHT22;2290;48.674;9.018;2022-10-31T14:03:37;22.80;99.90
4556;DHT22;2290;48.674;9.018;2022-10-31T14:06:05;22.70;99.90
4556;DHT22;2290;48.674;9.018;2022-10-31T14:08:37;24.10;99.90
4556;DHT22;2290;48.674;9.018;2022-10-31T14:11:06;24.90;99.90
4556;DHT22;2290;48.674;9.018;2022-10-31T14:13:40;25.30;99.90
4556;DHT22;2290;48.674;9.018;2022-10-31T14:16:27;25.10;99.90
4556;DHT22;2290;48.674;9.018;2022-10-31T14:19:08;24.50;99.90
4556;DHT22;2290;48.674;9.018;2022-10-31T14:21:43;24.80;99.90
4556;DHT22;2290;48.674;9.018;2022-10-31T14:27:02;29.00;99.90
4556;DHT22;2290;48.674;9.018;2022-10-31T14:29:32;28.60;99.90
4556;DHT22;2290;48.674;9.018;2022-10-31T14:32:05;27.30;99.90
4556;DHT22;2290;48.674;9.018;2022-10-31T14:34:50;26.70;99.90
4556;DHT22;2290;48.674;9.018;2022-10-31T14:44:57;27.10;99.90
4556;DHT22;2290;48.674;9.018;2022-10-31T14:47:52;27.20;99.90
4556;DHT22;2290;48.674;9.018;2022-10-31T14:50:51;26.80;99.90
4556;DHT22;2290;48.674;9.018;2022-10-31T14:53:25;25.80;99.90
4556;DHT22;2290;48.674;9.018;2022-10-31T14:55:53;24.90;99.90
4556;DHT22;2290;48.674;9.018;2022-10-31T15:00:55;23.90;99.90
4556;DHT22;2290;48.674;9.018;2022-10-31T15:03:32;23.40;99.90
4556;DHT22;2290;48.674;9.018;2022-10-31T15:06:01;22.90;99.90
4556;DHT22;2290;48.674;9.018;2022-10-31T15:08:49;22.40;99.90
4556;DHT22;2290;48.674;9.018;2022-10-31T15:11:36;22.00;99.90
4556;DHT22;2290;48.674;9.018;2022-10-31T15:14:17;21.60;99.90
4556;DHT22;2290;48.674;9.018;2022-10-31T15:16:47;21.20;99.90
4556;DHT22;2290;48.674;9.018;2022-10-31T15:19:23;20.90;99.90
4556;DHT22;2290;48.674;9.018;2022-10-31T15:21:51;20.50;99.90
4556;DHT22;2290;48.674;9.018;2022-10-31T15:24:18;20.30;99.90
4556;DHT22;2290;48.674;9.018;2022-10-31T15:26:50;20.40;99.90
4556;DHT22;2290;48.674;9.018;2022-10-31T15:29:18;20.50;99.90
4556;DHT22;2290;48.674;9.018;2022-10-31T15:32:09;20.20;99.90
4556;DHT22;2290;48.674;9.018;2022-10-31T15:34:43;19.90;99.90
4556;DHT22;2290;48.674;9.018;2022-10-31T15:37:16;19.60;99.90
4556;DHT22;2290;48.674;9.018;2022-10-31T15:39:43;19.40;99.90
4556;DHT22;2290;48.674;9.018;2022-10-31T15:47:39;18.60;99.90
4556;DHT22;2290;48.674;9.018;2022-10-31T15:52:58;18.30;99.90
4556;DHT22;2290;48.674;9.018;2022-10-31T15:55:27;18.00;99.90
4556;DHT22;2290;48.674;9.018;2022-10-31T15:58:01;18.00;99.90
4556;DHT22;2290;48.674;9.018;2022-10-31T16:00:35;17.80;99.90
4556;DHT22;2290;48.674;9.018;2022-10-31T16:05:58;17.40;99.90
4556;DHT22;2290;48.674;9.018;2022-10-31T16:11:40;17.20;99.90
4556;DHT22;2290;48.674;9.018;2022-10-31T16:16:21;17.00;99.90
4556;DHT22;2290;48.674;9.018;2022-10-31T16:18:48;16.80;99.90
4556;DHT22;2290;48.674;9.018;2022-10-31T16:21:15;16.70;99.90
4556;DHT22;2290;48.674;9.018;2022-10-31T16:23:45;16.70;99.90
4556;DHT22;2290;48.674;9.018;2022-10-31T16:26:17;16.60;99.90
4556;DHT22;2290;48.674;9.018;2022-10-31T16:28:57;16.50;99.90
4556;DHT22;2290;48.674;9.018;2022-10-31T16:31:37;16.40;99.90
4556;DHT22;2290;48.674;9.018;2022-10-31T16:36:37;16.10;99.90
4556;DHT22;2290;48.674;9.018;2022-10-31T16:39:06;16.10;99.90
4556;DHT22;2290;48.674;9.018;2022-10-31T16:41:39;16.00;99.90
4556;DHT22;2290;48.674;9.018;2022-10-31T16:44:21;15.90;99.90
4556;DHT22;2290;48.674;9.018;2022-10-31T16:46:47;15.80;99.90
4556;DHT22;2290;48.674;9.018;2022-10-31T16:49:13;15.60;99.90
4556;DHT22;2290;48.674;9.018;2022-10-31T16:51:41;15.60;99.90
4556;DHT22;2290;48.674;9.018;2022-10-31T16:54:08;15.50;99.90
4556;DHT22;2290;48.674;9.018;2022-10-31T16:56:38;15.40;99.90
4556;DHT22;2290;48.674;9.018;2022-10-31T16:59:06;15.40;99.90
4556;DHT22;2290;48.674;9.018;2022-10-31T17:01:34;15.50;99.90
4556;DHT22;2290;48.674;9.018;2022-10-31T17:04:00;15.40;99.90
4556;DHT22;2290;48.674;9.018;2022-10-31T17:06:26;15.40;99.90
4556;DHT22;2290;48.674;9.018;2022-10-31T17:08:53;15.40;99.90
4556;DHT22;2290;48.674;9.018;2022-10-31T17:11:23;15.50;99.90
4556;DHT22;2290;48.674;9.018;2022-10-31T17:13:50;15.40;99.90
4556;DHT22;2290;48.674;9.018;2022-10-31T17:16:19;15.50;99.90
4556;DHT22;2290;48.674;9.018;2022-10-31T17:18:46;15.40;99.90
4556;DHT22;2290;48.674;9.018;2022-10-31T17:21:22;15.40;99.90
4556;DHT22;2290;48.674;9.018;2022-10-31T17:23:49;15.40;99.90
4556;DHT22;2290;48.674;9.018;2022-10-31T17:26:15;15.40;99.90
4556;DHT22;2290;48.674;9.018;2022-10-31T17:28:43;15.40;99.90
4556;DHT22;2290;48.674;9.018;2022-10-31T17:31:27;15.80;99.90
4556;DHT22;2290;48.674;9.018;2022-10-31T17:33:55;15.40;99.90
4556;DHT22;2290;48.674;9.018;2022-10-31T17:36:21;15.40;99.90
4556;DHT22;2290;48.674;9.018;2022-10-31T17:38:47;15.40;99.90
4556;DHT22;2290;48.674;9.018;2022-10-31T17:41:12;15.40;99.90
4556;DHT22;2290;48.674;9.018;2022-10-31T17:43:38;15.30;99.90
4556;DHT22;2290;48.674;9.018;2022-10-31T17:46:04;15.20;99.90
4556;DHT22;2290;48.674;9.018;2022-10-31T17:48:31;15.20;99.90
4556;DHT22;2290;48.674;9.018;2022-10-31T17:51:02;15.10;99.90
4556;DHT22;2290;48.674;9.018;2022-10-31T17:53:30;15.00;99.90
4556;DHT22;2290;48.674;9.018;2022-10-31T17:56:00;15.00;99.90
4556;DHT22;2290;48.674;9.018;2022-10-31T17:58:27;14.90;99.90
4556;DHT22;2290;48.674;9.018;2022-10-31T18:00:53;14.80;99.90
4556;DHT22;2290;48.674;9.018;2022-10-31T18:03:20;14.70;99.90
4556;DHT22;2290;48.674;9.018;2022-10-31T18:05:57;14.70;99.90
4556;DHT22;2290;48.674;9.018;2022-10-31T18:08:34;14.50;99.90
4556;DHT22;2290;48.674;9.018;2022-10-31T18:11:18;14.50;99.90
4556;DHT22;2290;48.674;9.018;2022-10-31T18:13:45;14.50;99.90
4556;DHT22;2290;48.674;9.018;2022-10-31T18:16:16;14.40;99.90
4556;DHT22;2290;48.674;9.018;2022-10-31T18:18:49;14.50;99.90
4556;DHT22;2290;48.674;9.018;2022-10-31T18:21:16;14.50;99.90
4556;DHT22;2290;48.674;9.018;2022-10-31T18:23:42;14.50;99.90
4556;DHT22;2290;48.674;9.018;2022-10-31T18:26:08;14.40;99.90
4556;DHT22;2290;48.674;9.018;2022-10-31T18:28:35;14.30;99.90
4556;DHT22;2290;48.674;9.018;2022-10-31T18:31:01;14.30;99.90
4556;DHT22;2290;48.674;9.018;2022-10-31T18:33:27;14.30;99.90
4556;DHT22;2290;48.674;9.018;2022-10-31T18:35:52;14.30;99.90
4556;DHT22;2290;48.674;9.018;2022-10-31T18:38:18;14.30;99.90
4556;DHT22;2290;48.674;9.018;2022-10-31T18:40:44;14.30;99.90
4556;DHT22;2290;48.674;9.018;2022-10-31T18:43:10;14.20;99.90
4556;DHT22;2290;48.674;9.018;2022-10-31T18:45:37;14.20;99.90
4556;DHT22;2290;48.674;9.018;2022-10-31T18:48:03;14.20;99.90